createdAt,value
2023-02-04T00:00:20.658Z,0.70
2023-02-04T00:02:48.715Z,0.83
2023-02-04T00:05:17.415Z,0.90
2023-02-04T00:07:45.175Z,0.70
2023-02-04T00:10:12.878Z,0.80
2023-02-04T00:12:42.016Z,0.90
2023-02-04T00:15:10.826Z,0.70
2023-02-04T00:17:39.803Z,0.70
2023-02-04T00:20:08.061Z,0.80
2023-02-04T00:22:35.802Z,0.80
2023-02-04T00:25:03.766Z,0.70
2023-02-04T00:27:31.551Z,0.70
2023-02-04T00:30:00.679Z,0.70
2023-02-04T00:32:28.399Z,0.60
2023-02-04T00:34:56.156Z,0.70
2023-02-04T00:37:24.223Z,0.60
2023-02-04T00:39:52.026Z,0.77
2023-02-04T00:42:19.773Z,0.60
2023-02-04T00:44:47.508Z,0.60
2023-02-04T00:47:16.629Z,0.63
2023-02-04T00:49:44.407Z,0.60
2023-02-04T00:52:12.137Z,0.70
2023-02-04T00:54:39.856Z,0.53
2023-02-04T00:57:07.567Z,0.70
2023-02-04T00:59:35.367Z,0.70
2023-02-04T01:02:03.135Z,0.60
2023-02-04T01:04:32.323Z,0.60
2023-02-04T01:07:00.078Z,0.60
2023-02-04T01:09:27.850Z,0.70
2023-02-04T01:11:55.548Z,0.60
2023-02-04T01:14:23.323Z,0.60
2023-02-04T01:16:51.091Z,0.60
2023-02-04T01:19:18.825Z,0.63
2023-02-04T01:21:47.978Z,0.60
2023-02-04T01:24:15.665Z,0.70
2023-02-04T01:26:43.404Z,0.67
2023-02-04T01:29:11.328Z,0.70
2023-02-04T01:31:39.201Z,0.60
2023-02-04T01:34:07.469Z,0.60
2023-02-04T01:36:35.215Z,0.60
2023-02-04T01:39:04.419Z,0.60
2023-02-04T01:41:32.189Z,0.60
2023-02-04T01:44:00.236Z,0.60
2023-02-04T01:46:27.955Z,0.60
2023-02-04T01:48:55.763Z,0.70
2023-02-04T01:51:28.035Z,0.70
2023-02-04T01:53:56.101Z,0.70
2023-02-04T01:56:26.547Z,0.70
2023-02-04T01:58:55.216Z,0.60
2023-02-04T02:01:36.821Z,0.70
2023-02-04T02:04:04.691Z,0.63
2023-02-04T02:06:34.843Z,0.70
2023-02-04T02:09:02.911Z,0.70
2023-02-04T02:11:32.111Z,0.70
2023-02-04T02:14:00.129Z,0.60
2023-02-04T02:16:27.967Z,0.70
2023-02-04T02:18:57.759Z,0.60
2023-02-04T02:21:29.095Z,0.80
2023-02-04T02:24:01.089Z,0.73
2023-02-04T02:26:29.013Z,0.80
2023-02-04T02:28:58.035Z,0.70
2023-02-04T02:31:25.978Z,0.77
2023-02-04T02:33:53.957Z,0.80
2023-02-04T02:36:23.742Z,0.80
2023-02-04T02:38:51.516Z,0.80
2023-02-04T02:41:20.806Z,0.90
2023-02-04T02:43:48.581Z,0.80
2023-02-04T02:46:16.389Z,0.90
2023-02-04T02:48:44.080Z,0.70
2023-02-04T02:51:11.798Z,0.70
2023-02-04T02:53:39.639Z,0.70
2023-02-04T02:56:07.607Z,0.70
2023-02-04T02:58:37.449Z,0.60
2023-02-04T03:01:06.452Z,0.60
2023-02-04T03:03:35.379Z,0.60
2023-02-04T03:06:04.975Z,0.70
2023-02-04T03:08:32.772Z,0.60
2023-02-04T03:11:00.541Z,0.67
2023-02-04T03:13:28.406Z,0.60
2023-02-04T03:15:57.835Z,0.63
2023-02-04T03:18:25.574Z,0.70
2023-02-04T03:20:53.546Z,0.60
2023-02-04T03:23:21.629Z,0.60
2023-02-04T03:25:49.633Z,0.70
2023-02-04T03:28:17.473Z,0.60
2023-02-04T03:30:53.888Z,0.70
2023-02-04T03:33:23.247Z,0.70
2023-02-04T03:35:51.606Z,0.80
2023-02-04T03:38:20.030Z,0.70
2023-02-04T03:40:47.963Z,0.80
2023-02-04T03:43:15.756Z,0.80
2023-02-04T03:45:45.774Z,0.80
2023-02-04T03:48:13.861Z,0.80
2023-02-04T03:50:43.111Z,0.70
2023-02-04T03:53:11.014Z,0.70
2023-02-04T03:55:38.804Z,0.73
2023-02-04T03:58:07.075Z,0.70
2023-02-04T04:00:34.976Z,0.90
2023-02-04T04:03:02.839Z,0.83
2023-02-04T04:05:30.750Z,0.80
2023-02-04T04:07:59.936Z,0.70
2023-02-04T04:10:29.525Z,0.70
2023-02-04T04:12:57.395Z,0.93
2023-02-04T04:15:25.288Z,0.70
2023-02-04T04:17:53.128Z,0.80
2023-02-04T04:20:21.153Z,0.80
2023-02-04T04:22:48.885Z,0.70
2023-02-04T04:25:18.246Z,0.80
2023-02-04T04:27:46.104Z,0.90
2023-02-04T04:30:13.859Z,0.70
2023-02-04T04:32:41.669Z,0.80
2023-02-04T04:35:09.593Z,0.80
2023-02-04T04:37:37.322Z,0.90
2023-02-04T04:40:05.356Z,0.80
2023-02-04T04:42:34.567Z,0.80
2023-02-04T04:45:02.463Z,0.73
2023-02-04T04:47:30.189Z,0.90
2023-02-04T04:49:57.931Z,0.90
2023-02-04T04:52:25.642Z,0.90
2023-02-04T04:54:53.386Z,0.90
2023-02-04T04:57:21.092Z,0.80
2023-02-04T04:59:50.232Z,0.90
2023-02-04T05:02:17.932Z,0.90
2023-02-04T05:04:45.692Z,0.80
2023-02-04T05:07:13.583Z,0.80
2023-02-04T05:09:41.506Z,0.90
2023-02-04T05:12:09.316Z,0.80
2023-02-04T05:14:37.073Z,0.80
2023-02-04T05:17:06.272Z,0.73
2023-02-04T05:19:34.028Z,0.77
2023-02-04T05:22:02.724Z,0.60
2023-02-04T05:24:30.418Z,0.80
2023-02-04T05:26:58.165Z,0.60
2023-02-04T05:29:25.870Z,0.80
2023-02-04T05:31:53.714Z,0.70
2023-02-04T05:34:22.877Z,0.73
2023-02-04T05:36:50.710Z,0.80
2023-02-04T05:39:18.451Z,0.77
2023-02-04T05:41:46.164Z,0.87
2023-02-04T05:44:13.860Z,0.70
2023-02-04T05:46:41.648Z,0.70
2023-02-04T05:49:09.414Z,0.60
2023-02-04T05:51:39.586Z,0.80
2023-02-04T05:54:07.262Z,0.70
2023-02-04T05:56:35.040Z,0.80
2023-02-04T05:59:02.819Z,0.80
2023-02-04T06:01:30.563Z,0.70
2023-02-04T06:03:58.384Z,0.70
2023-02-04T06:06:26.253Z,0.80
2023-02-04T06:08:55.494Z,0.77
2023-02-04T06:11:23.243Z,0.90
2023-02-04T06:13:50.948Z,0.77
2023-02-04T06:16:18.738Z,0.80
2023-02-04T06:18:46.455Z,0.80
2023-02-04T06:21:14.178Z,0.90
2023-02-04T06:23:41.940Z,0.80
2023-02-04T06:26:11.175Z,0.80
2023-02-04T06:28:39.071Z,0.80
2023-02-04T06:31:09.235Z,0.80
2023-02-04T06:33:37.310Z,0.70
2023-02-04T06:36:05.246Z,0.90
2023-02-04T06:38:33.012Z,0.80
2023-02-04T06:41:00.717Z,0.80
2023-02-04T06:43:29.961Z,0.80
2023-02-04T06:45:57.780Z,0.80
2023-02-04T06:48:25.705Z,0.80
2023-02-04T06:50:53.567Z,0.90
2023-02-04T06:53:21.296Z,0.90
2023-02-04T06:55:49.106Z,0.90
2023-02-04T06:58:16.871Z,0.80
2023-02-04T07:00:46.575Z,0.80
2023-02-04T07:03:14.298Z,0.80
2023-02-04T07:05:42.057Z,0.80
2023-02-04T07:08:09.781Z,0.70
2023-02-04T07:10:37.535Z,0.80
2023-02-04T07:13:05.313Z,0.87
2023-02-04T07:15:33.052Z,0.70
2023-02-04T07:18:02.218Z,0.90
2023-02-04T07:20:30.380Z,0.80
2023-02-04T07:22:58.317Z,0.83
2023-02-04T07:25:26.122Z,0.70
2023-02-04T07:27:53.974Z,0.80
2023-02-04T07:30:21.848Z,1.00
2023-02-04T07:32:49.526Z,0.77
2023-02-04T07:35:18.946Z,0.80
2023-02-04T07:37:46.691Z,0.67
2023-02-04T07:40:14.442Z,0.90
2023-02-04T07:42:42.196Z,0.80
2023-02-04T07:45:10.390Z,0.80
2023-02-04T07:47:38.099Z,0.90
2023-02-04T07:50:06.179Z,0.90
2023-02-04T07:52:35.505Z,0.80
2023-02-04T07:55:03.279Z,0.90
2023-02-04T07:57:31.244Z,0.87
2023-02-04T07:59:59.229Z,0.87
2023-02-04T08:02:27.340Z,0.90
2023-02-04T08:04:55.167Z,0.73
2023-02-04T08:07:22.911Z,0.73
2023-02-04T08:09:54.576Z,0.70
2023-02-04T08:12:22.380Z,0.80
2023-02-04T08:14:50.157Z,0.80
2023-02-04T08:17:17.964Z,0.77
2023-02-04T08:19:45.721Z,0.80
2023-02-04T08:22:13.594Z,0.80
2023-02-04T08:24:41.406Z,0.70
2023-02-04T08:27:10.631Z,0.70
2023-02-04T08:29:38.368Z,0.70
2023-02-04T08:32:06.348Z,0.70
2023-02-04T08:34:34.155Z,0.70
2023-02-04T08:37:01.863Z,0.70
2023-02-04T08:39:29.623Z,0.80
2023-02-04T08:41:57.452Z,0.70
2023-02-04T08:44:26.612Z,0.60
2023-02-04T08:46:54.428Z,0.80
2023-02-04T08:49:22.139Z,0.70
2023-02-04T08:51:49.905Z,0.70
2023-02-04T08:54:17.626Z,0.80
2023-02-04T08:56:45.652Z,0.70
2023-02-04T08:59:13.526Z,0.80
2023-02-04T09:01:42.780Z,0.80
2023-02-04T09:04:10.496Z,0.73
2023-02-04T09:06:38.250Z,0.70
2023-02-04T09:09:05.942Z,0.70
2023-02-04T09:11:33.673Z,0.70
2023-02-04T09:14:01.355Z,0.80
2023-02-04T09:16:29.127Z,0.80
2023-02-04T09:18:58.995Z,0.80
2023-02-04T09:21:26.856Z,0.70
2023-02-04T09:23:54.810Z,0.80
2023-02-04T09:26:22.658Z,0.70
2023-02-04T09:28:50.413Z,0.63
2023-02-04T09:31:18.961Z,0.60
2023-02-04T09:33:46.817Z,0.70
2023-02-04T09:36:16.002Z,0.70
2023-02-04T09:38:43.803Z,0.63
2023-02-04T09:41:12.451Z,0.80
2023-02-04T09:43:41.710Z,0.70
2023-02-04T09:46:10.644Z,0.60
2023-02-04T09:48:39.005Z,0.70
2023-02-04T09:51:08.432Z,0.70
2023-02-04T09:53:37.918Z,0.70
2023-02-04T09:56:05.976Z,0.77
2023-02-04T09:58:35.068Z,0.80
2023-02-04T10:01:07.220Z,0.80
2023-02-04T10:03:35.459Z,0.70
2023-02-04T10:06:03.229Z,0.70
2023-02-04T10:08:31.653Z,0.70
2023-02-04T10:11:01.324Z,0.70
2023-02-04T10:13:32.908Z,0.70
2023-02-04T10:16:01.259Z,0.70
2023-02-04T10:18:30.240Z,0.70
2023-02-04T10:20:59.073Z,0.60
2023-02-04T10:23:27.020Z,0.70
2023-02-04T10:25:54.983Z,0.70
2023-02-04T10:28:33.824Z,0.70
2023-02-04T10:31:02.017Z,0.80
2023-02-04T10:33:29.954Z,0.70
2023-02-04T10:35:58.127Z,0.70
2023-02-04T10:38:26.077Z,0.70
2023-02-04T10:41:02.067Z,0.63
2023-02-04T10:43:32.296Z,0.70
2023-02-04T10:46:03.876Z,0.67
2023-02-04T10:48:43.269Z,0.63
2023-02-04T10:51:16.296Z,0.70
2023-02-04T10:54:01.711Z,0.70
2023-02-04T10:56:29.605Z,0.70
2023-02-04T10:58:58.908Z,0.77
2023-02-04T11:01:34.399Z,0.70
2023-02-04T11:04:02.267Z,0.70
2023-02-04T11:06:30.234Z,0.60
2023-02-04T11:09:00.563Z,0.70
2023-02-04T11:11:28.360Z,0.70
2023-02-04T11:14:02.270Z,0.70
2023-02-04T11:16:32.879Z,0.60
2023-02-04T11:19:01.558Z,0.70
2023-02-04T11:21:30.935Z,0.70
2023-02-04T11:24:05.461Z,0.63
2023-02-04T11:26:34.240Z,0.70
2023-02-04T11:29:26.054Z,0.70
2023-02-04T11:32:02.847Z,0.70
2023-02-04T11:34:32.229Z,0.70
2023-02-04T11:37:13.082Z,0.70
2023-02-04T11:39:42.543Z,0.70
2023-02-04T11:42:18.283Z,0.60
2023-02-04T11:44:49.899Z,0.70
2023-02-04T11:47:19.353Z,0.60
2023-02-04T11:49:48.281Z,0.63
2023-02-04T11:52:16.712Z,0.60
2023-02-04T11:54:44.642Z,0.60
2023-02-04T11:57:12.650Z,0.70
2023-02-04T11:59:40.653Z,0.60
2023-02-04T12:02:16.049Z,0.60
2023-02-04T12:04:53.817Z,0.60
2023-02-04T12:07:29.634Z,0.50
2023-02-04T12:09:58.009Z,0.50
2023-02-04T12:12:29.993Z,0.70
2023-02-04T12:14:58.535Z,0.70
2023-02-04T12:17:26.385Z,0.70
2023-02-04T12:19:56.561Z,0.60
2023-02-04T12:22:24.519Z,0.50
2023-02-04T12:24:53.469Z,0.60
2023-02-04T12:27:22.587Z,0.70
2023-02-04T12:29:50.424Z,0.70
2023-02-04T12:32:18.310Z,0.70
2023-02-04T12:34:46.179Z,0.70
2023-02-04T12:37:19.188Z,0.80
2023-02-04T12:39:47.455Z,0.70
2023-02-04T12:42:16.947Z,0.70
2023-02-04T12:44:44.672Z,0.77
2023-02-04T12:47:12.532Z,0.70
2023-02-04T12:49:40.306Z,0.70
2023-02-04T12:52:08.011Z,0.70
2023-02-04T12:54:37.088Z,0.70
2023-02-04T12:57:04.722Z,0.70
2023-02-04T12:59:32.478Z,0.80
2023-02-04T13:02:00.310Z,0.70
2023-02-04T13:04:28.116Z,0.77
2023-02-04T13:06:55.807Z,0.73
2023-02-04T13:09:23.500Z,0.70
2023-02-04T13:11:52.588Z,0.70
2023-02-04T13:14:20.265Z,0.70
2023-02-04T13:16:47.911Z,0.80
2023-02-04T13:19:15.537Z,0.70
2023-02-04T13:21:43.376Z,0.70
2023-02-04T13:24:11.097Z,0.80
2023-02-04T13:26:38.856Z,0.67
2023-02-04T13:29:07.948Z,0.70
2023-02-04T13:31:35.662Z,0.70
2023-02-04T13:34:05.790Z,4.93
2023-02-04T13:36:33.389Z,9.00
2023-02-04T13:39:01.052Z,8.77
2023-02-04T13:41:29.094Z,8.00
2023-02-04T13:43:57.382Z,8.60
2023-02-04T13:46:26.596Z,8.07
2023-02-04T13:48:54.577Z,8.63
2023-02-04T13:51:22.436Z,7.90
2023-02-04T13:53:50.100Z,8.10
2023-02-04T13:56:17.952Z,8.00
2023-02-04T13:58:45.715Z,7.97
2023-02-04T14:01:13.826Z,8.70
2023-02-04T14:03:43.955Z,8.20
2023-02-04T14:06:11.775Z,8.03
2023-02-04T14:08:39.460Z,8.13
2023-02-04T14:11:07.411Z,7.93
2023-02-04T14:13:35.083Z,7.90
2023-02-04T14:16:02.788Z,8.43
2023-02-04T14:18:30.637Z,8.37
2023-02-04T14:20:59.807Z,8.80
2023-02-04T14:23:27.478Z,9.00
2023-02-04T14:25:55.222Z,8.60
2023-02-04T14:28:22.959Z,9.48
2023-02-04T14:30:50.732Z,9.30
2023-02-04T14:33:18.963Z,9.30
2023-02-04T14:35:46.616Z,15.37
2023-02-04T14:38:17.544Z,15.67
2023-02-04T14:40:45.873Z,15.07
2023-02-04T14:43:13.663Z,15.47
2023-02-04T14:45:41.698Z,15.70
2023-02-04T14:48:09.717Z,15.63
2023-02-04T14:50:39.403Z,15.90
2023-02-04T14:53:07.148Z,15.80
2023-02-04T14:55:36.229Z,15.93
2023-02-04T14:58:04.037Z,16.00
2023-02-04T15:00:32.093Z,16.47
2023-02-04T15:03:00.043Z,15.53
2023-02-04T15:05:27.799Z,16.17
2023-02-04T15:07:55.577Z,15.87
2023-02-04T15:10:24.930Z,15.10
2023-02-04T15:12:55.395Z,14.77
2023-02-04T15:15:23.131Z,15.57
2023-02-04T15:17:51.173Z,15.83
2023-02-04T15:20:18.958Z,15.87
2023-02-04T15:22:51.767Z,16.13
2023-02-04T15:25:19.909Z,14.93
2023-02-04T15:27:47.702Z,15.10
2023-02-04T15:30:16.588Z,14.87
2023-02-04T15:32:46.405Z,15.03
2023-02-04T15:35:14.516Z,15.07
2023-02-04T15:37:42.215Z,14.30
2023-02-04T15:40:11.003Z,15.00
2023-02-04T15:42:38.719Z,15.70
2023-02-04T15:45:06.748Z,14.77
2023-02-04T15:47:34.561Z,14.37
2023-02-04T15:50:05.960Z,13.87
2023-02-04T15:52:33.743Z,13.87
2023-02-04T15:55:01.538Z,13.70
2023-02-04T15:57:29.242Z,13.93
2023-02-04T15:59:58.022Z,14.07
2023-02-04T16:02:25.815Z,14.83
2023-02-04T16:04:53.666Z,14.40
2023-02-04T16:07:22.803Z,13.80
2023-02-04T16:09:50.562Z,14.00
2023-02-04T16:12:18.314Z,13.90
2023-02-04T16:14:45.994Z,13.13
2023-02-04T16:17:13.814Z,13.20
2023-02-04T16:19:41.597Z,14.30
2023-02-04T16:22:09.277Z,13.43
2023-02-04T16:24:38.737Z,13.93
2023-02-04T16:27:06.489Z,14.10
2023-02-04T16:29:34.118Z,13.80
2023-02-04T16:32:01.846Z,13.13
2023-02-04T16:34:30.101Z,13.90
2023-02-04T16:36:57.922Z,13.73
2023-02-04T16:39:25.672Z,13.50
2023-02-04T16:41:54.744Z,14.80
2023-02-04T16:44:22.423Z,13.77
2023-02-04T16:46:50.896Z,13.80
2023-02-04T16:49:18.731Z,13.87
2023-02-04T16:51:46.474Z,12.90
2023-02-04T16:54:14.459Z,13.53
2023-02-04T16:56:42.158Z,13.97
2023-02-04T16:59:11.238Z,13.77
2023-02-04T17:01:38.982Z,12.80
2023-02-04T17:04:06.642Z,13.03
2023-02-04T17:06:35.866Z,13.00
2023-02-04T17:09:03.610Z,13.30
2023-02-04T17:11:31.607Z,13.70
2023-02-04T17:14:00.069Z,13.80
2023-02-04T17:16:29.673Z,14.33
2023-02-04T17:18:57.507Z,13.93
2023-02-04T17:21:26.182Z,14.03
2023-02-04T17:23:55.421Z,14.23
2023-02-04T17:26:24.375Z,13.60
2023-02-04T17:28:52.132Z,13.90
2023-02-04T17:31:19.865Z,13.20
2023-02-04T17:33:48.903Z,14.40
2023-02-04T17:36:16.717Z,13.00
2023-02-04T17:38:44.491Z,12.93
2023-02-04T17:41:12.281Z,13.30
2023-02-04T17:43:43.227Z,12.27
2023-02-04T17:46:11.685Z,12.00
2023-02-04T17:48:39.436Z,12.93
2023-02-04T17:51:09.885Z,12.20
2023-02-04T17:53:40.303Z,12.73
2023-02-04T17:56:11.140Z,13.07
2023-02-04T17:58:39.096Z,14.20
2023-02-04T18:01:11.909Z,12.33
2023-02-04T18:03:42.798Z,11.87
2023-02-04T18:06:20.171Z,12.40
2023-02-04T18:08:48.743Z,12.37
2023-02-04T18:11:17.412Z,12.10
2023-02-04T18:13:45.184Z,11.87
2023-02-04T18:16:20.433Z,11.67
2023-02-04T18:18:48.687Z,12.80
2023-02-04T18:21:24.243Z,12.40
2023-02-04T18:23:58.524Z,13.80
2023-02-04T18:26:27.534Z,14.00
2023-02-04T18:28:55.289Z,13.73
2023-02-04T18:31:26.473Z,12.93
2023-02-04T18:33:54.178Z,12.73
2023-02-04T18:36:23.490Z,12.57
2023-02-04T18:38:51.666Z,13.20
2023-02-04T18:41:29.228Z,13.23
2023-02-04T18:44:02.545Z,12.10
2023-02-04T18:46:32.588Z,13.37
2023-02-04T18:49:01.967Z,12.73
2023-02-04T18:51:34.962Z,12.93
2023-02-04T18:54:17.530Z,13.87
2023-02-04T18:56:45.247Z,13.17
2023-02-04T18:59:17.014Z,12.70
2023-02-04T19:01:45.180Z,13.00
2023-02-04T19:04:15.823Z,13.70
2023-02-04T19:06:46.436Z,13.33
2023-02-04T19:09:17.557Z,12.10
2023-02-04T19:11:47.171Z,13.83
2023-02-04T19:14:18.353Z,13.13
2023-02-04T19:16:47.067Z,12.70
2023-02-04T19:19:26.269Z,11.60
2023-02-04T19:21:55.765Z,12.03
2023-02-04T19:24:24.777Z,12.83
2023-02-04T19:26:55.186Z,12.03
2023-02-04T19:29:43.814Z,12.40
2023-02-04T19:32:24.214Z,11.87
2023-02-04T19:34:52.875Z,11.73
2023-02-04T19:37:24.618Z,11.43
2023-02-04T19:39:52.891Z,11.57
2023-02-04T19:42:29.301Z,10.70
2023-02-04T19:44:59.400Z,11.73
2023-02-04T19:47:28.597Z,10.93
2023-02-04T19:50:03.555Z,11.77
2023-02-04T19:52:36.016Z,10.40
2023-02-04T19:55:21.039Z,11.40
2023-02-04T19:57:50.283Z,11.10
2023-02-04T20:00:32.974Z,11.27
2023-02-04T20:03:01.446Z,11.93
2023-02-04T20:05:31.671Z,11.17
2023-02-04T20:08:02.505Z,11.57
2023-02-04T20:10:30.435Z,11.17
2023-02-04T20:12:59.440Z,11.00
2023-02-04T20:15:27.161Z,11.53
2023-02-04T20:17:54.934Z,10.43
2023-02-04T20:20:24.557Z,10.83
2023-02-04T20:22:53.225Z,10.63
2023-02-04T20:25:41.691Z,11.50
2023-02-04T20:28:30.217Z,11.13
2023-02-04T20:31:01.490Z,10.17
2023-02-04T20:33:30.749Z,11.20
2023-02-04T20:36:19.345Z,10.93
2023-02-04T20:38:47.092Z,9.93
2023-02-04T20:41:17.255Z,10.67
2023-02-04T20:43:44.957Z,9.67
2023-02-04T20:46:17.875Z,9.93
2023-02-04T20:48:45.613Z,10.00
2023-02-04T20:51:16.772Z,10.10
2023-02-04T20:53:48.499Z,10.47
2023-02-04T20:56:23.660Z,10.47
2023-02-04T20:58:52.423Z,9.80
2023-02-04T21:01:33.955Z,10.43
2023-02-04T21:04:02.804Z,9.97
2023-02-04T21:06:32.760Z,10.40
2023-02-04T21:09:00.819Z,10.03
2023-02-04T21:11:28.564Z,9.90
2023-02-04T21:13:56.375Z,9.97
2023-02-04T21:16:24.119Z,10.40
2023-02-04T21:18:54.301Z,9.20
2023-02-04T21:21:28.959Z,10.10
2023-02-04T21:23:57.003Z,10.10
2023-02-04T21:26:25.328Z,9.83
2023-02-04T21:28:53.235Z,9.80
2023-02-04T21:31:21.415Z,9.37
2023-02-04T21:33:49.184Z,9.73
2023-02-04T21:36:18.386Z,10.53
2023-02-04T21:38:47.246Z,10.10
2023-02-04T21:41:16.586Z,10.00
2023-02-04T21:43:44.424Z,9.30
2023-02-04T21:46:12.127Z,10.13
2023-02-04T21:48:39.908Z,10.60
2023-02-04T21:51:07.740Z,10.20
2023-02-04T21:53:36.841Z,10.20
2023-02-04T21:56:04.741Z,10.10
2023-02-04T21:58:32.510Z,9.90
2023-02-04T22:01:00.271Z,10.03
2023-02-04T22:03:28.176Z,10.30
2023-02-04T22:05:55.949Z,10.40
2023-02-04T22:08:23.699Z,9.67
2023-02-04T22:10:52.862Z,9.97
2023-02-04T22:13:20.614Z,9.40
2023-02-04T22:15:49.084Z,9.27
2023-02-04T22:18:17.021Z,8.80
2023-02-04T22:20:44.896Z,8.93
2023-02-04T22:23:12.622Z,9.27
2023-02-04T22:25:40.417Z,10.57
2023-02-04T22:28:09.711Z,10.10
2023-02-04T22:30:37.904Z,10.07
2023-02-04T22:33:05.762Z,10.10
2023-02-04T22:35:35.654Z,8.97
2023-02-04T22:38:03.703Z,9.97
2023-02-04T22:40:31.416Z,10.00
2023-02-04T22:42:59.894Z,9.50
2023-02-04T22:45:29.087Z,9.20
2023-02-04T22:47:56.781Z,8.87
2023-02-04T22:50:24.518Z,9.30
2023-02-04T22:52:52.234Z,9.90
2023-02-04T22:55:19.950Z,9.70
2023-02-04T22:57:47.808Z,9.60
2023-02-04T23:00:16.188Z,8.90
2023-02-04T23:02:45.267Z,9.40
2023-02-04T23:05:12.968Z,8.97
2023-02-04T23:07:40.754Z,9.33
2023-02-04T23:10:09.138Z,8.40
2023-02-04T23:12:36.934Z,9.13
2023-02-04T23:15:04.973Z,8.47
2023-02-04T23:17:32.667Z,8.07
2023-02-04T23:20:01.882Z,8.63
2023-02-04T23:22:29.642Z,8.00
2023-02-04T23:24:57.398Z,8.33
2023-02-04T23:27:25.158Z,8.10
2023-02-04T23:29:52.921Z,8.07
2023-02-04T23:32:20.697Z,8.03
2023-02-04T23:34:48.404Z,8.03
2023-02-04T23:37:17.563Z,8.00
2023-02-04T23:39:45.326Z,8.17
2023-02-04T23:42:13.433Z,8.23
2023-02-04T23:44:41.103Z,8.40
2023-02-04T23:47:08.862Z,8.70
2023-02-04T23:49:36.794Z,8.10
2023-02-04T23:52:05.738Z,7.87
2023-02-04T23:54:35.121Z,8.53
2023-02-04T23:57:02.877Z,8.30
2023-02-04T23:59:31.175Z,8.33
